Country
Station

 

Weather  for  Gavle/Sandviken Air Force Base  -  Sweden    Sweden

  
6 °C (43 °F)
    
 
 

Current METAR for Gavle/Sandviken Air Force Base is :

ESSK 121050Z 21010KT 9999 OVC007 06/06 Q1008

 

This is a report for Gavle/Sandviken Air Force Base - Sweden.
 
The report was made 202 hours and 31 minutes ago, at 10:50 UTC .
The wind was blowing at a speed of 5.1 meters per second (11.5 miles per hour) from south/southwest (210°).
 
The temperature was 6 °C (43 °F), with a dew-point at 6 °C (43 °F).
The atmospheric pressure was 1008 hPa (29.77 inHg).
The relative humidity was 100.0%.
 
The sky was overcast from a height of 213 meter (700 feet)
 
The overall visibility was greater than 10 kilometers (6.2 miles).
 

 
 
 
 

Country :   A   B   C   D   E   F   G   H   I   J   K   L   M   N   O   P   Q   R   S   T   U   V   W   Y   Z

 

Site Info  |  Disclaimer  |  Credits  |  Privacy
Contact us  |  Add to favorites
© 2013-2019 METARs - All rights reserved